Time;durP1;ratioP1;P1;durP2;ratioP2;P2;SDS_P1;SDS_P2;PMS_P1;PMS_P2;Temp;Humidity;BMP_temperature;BMP_pressure;BME280_temperature;BME280_humidity;BME280_pressure;Samples;Min_cycle;Max_cycle;Signal;HPM_P1;HPM_P2
2022/11/23 00:01:14;;;;;;;19.37;13.80;;;3.50;99.90;;;;;;4844600;29;20864;-58
2022/11/23 00:03:45;;;;;;;20.57;13.27;;;3.50;99.90;;;;;;4844203;29;20494;-58
2022/11/23 00:06:13;;;;;;;22.63;14.03;;;3.60;99.90;;;;;;4844520;29;20519;-58
2022/11/23 00:08:41;;;;;;;18.37;12.97;;;3.60;99.90;;;;;;4844436;29;20483;-58
2022/11/23 00:11:09;;;;;;;20.67;13.33;;;3.60;99.90;;;;;;4844315;29;20487;-58
2022/11/23 00:13:39;;;;;;;20.30;13.47;;;3.70;99.90;;;;;;4843835;29;20545;-58
2022/11/23 00:16:08;;;;;;;41.37;23.47;;;3.70;99.90;;;;;;4844213;29;20490;-58
2022/11/23 00:18:36;;;;;;;24.57;15.57;;;3.70;99.90;;;;;;4844284;29;20483;-58
2022/11/23 00:21:11;;;;;;;24.43;16.60;;;3.70;99.90;;;;;;4844412;29;20498;-58
2022/11/23 00:23:39;;;;;;;25.93;16.03;;;3.80;99.90;;;;;;4844084;29;20495;-58
2022/11/23 00:26:07;;;;;;;20.70;14.57;;;3.80;99.90;;;;;;4843408;29;20468;-58
2022/11/23 00:28:38;;;;;;;18.73;13.67;;;3.80;99.90;;;;;;4843699;29;20881;-59
2022/11/23 00:31:07;;;;;;;19.13;12.50;;;4.00;99.90;;;;;;4843781;29;20854;-59
2022/11/23 00:33:35;;;;;;;16.23;11.97;;;4.00;99.90;;;;;;4844015;29;20807;-58
2022/11/23 00:36:07;;;;;;;19.60;12.20;;;4.00;99.90;;;;;;4842597;29;20481;-58
2022/11/23 00:38:36;;;;;;;16.60;11.73;;;4.00;99.90;;;;;;4843753;29;20472;-59
2022/11/23 00:41:06;;;;;;;17.63;11.30;;;3.90;99.90;;;;;;4843862;29;20479;-59
2022/11/23 00:43:35;;;;;;;17.37;11.37;;;4.00;99.90;;;;;;4843539;29;20950;-59
2022/11/23 00:46:05;;;;;;;19.67;12.27;;;4.10;99.90;;;;;;4843764;29;20970;-58
2022/11/23 00:48:33;;;;;;;19.87;12.37;;;4.00;99.90;;;;;;4843596;29;20530;-58
2022/11/23 00:51:02;;;;;;;17.47;11.90;;;4.00;99.90;;;;;;4843524;29;20553;-58
2022/11/23 00:53:31;;;;;;;18.80;12.13;;;4.00;99.90;;;;;;4843922;29;20985;-58
2022/11/23 00:56:01;;;;;;;20.83;12.33;;;4.00;99.90;;;;;;4844124;29;20951;-59
2022/11/23 00:58:29;;;;;;;20.30;11.83;;;4.00;99.90;;;;;;4843291;29;20471;-57
2022/11/23 01:01:07;;;;;;;17.13;11.80;;;4.00;99.90;;;;;;4849030;29;20489;-58
2022/11/23 01:03:36;;;;;;;16.37;11.00;;;4.00;99.90;;;;;;4857352;29;20507;-58
2022/11/23 01:06:06;;;;;;;17.10;10.87;;;4.00;99.90;;;;;;4857507;29;20472;-59
2022/11/23 01:08:34;;;;;;;17.53;11.10;;;4.10;99.90;;;;;;4842068;29;20536;-59
2022/11/23 01:11:06;;;;;;;16.73;10.67;;;4.10;99.90;;;;;;4843424;29;20531;-58
2022/11/23 01:13:35;;;;;;;19.33;10.67;;;4.10;99.90;;;;;;4843028;29;20559;-59
2022/11/23 01:16:07;;;;;;;17.73;10.87;;;4.20;99.90;;;;;;4857300;29;21051;-59
2022/11/23 01:18:36;;;;;;;15.50;10.57;;;4.20;99.90;;;;;;4841965;29;20490;-58
2022/11/23 01:21:07;;;;;;;17.13;10.87;;;4.20;99.90;;;;;;4843030;29;20474;-58
2022/11/23 01:23:36;;;;;;;17.03;10.10;;;4.20;99.90;;;;;;4841581;29;20497;-59
2022/11/23 01:26:07;;;;;;;19.00;11.67;;;4.20;99.90;;;;;;4843092;29;20473;-59
2022/11/23 01:28:36;;;;;;;15.97;10.30;;;4.30;99.90;;;;;;4842902;29;21143;-58
2022/11/23 01:31:05;;;;;;;15.80;10.60;;;4.30;99.90;;;;;;4837841;29;20547;-59
2022/11/23 01:33:34;;;;;;;16.50;11.23;;;4.40;99.90;;;;;;4840752;29;20469;-58
2022/11/23 01:36:09;;;;;;;20.60;10.97;;;4.40;99.90;;;;;;4842346;29;20473;-59
2022/11/23 01:38:37;;;;;;;15.27;10.27;;;4.40;99.90;;;;;;4842137;29;20472;-58
2022/11/23 01:41:09;;;;;;;17.03;10.73;;;4.40;99.90;;;;;;4841729;29;20580;-59
2022/11/23 01:43:37;;;;;;;14.63;10.47;;;4.40;99.90;;;;;;4841187;29;20510;-57
2022/11/23 01:46:05;;;;;;;17.67;11.73;;;4.40;99.90;;;;;;4842934;29;20527;-58
2022/11/23 01:48:37;;;;;;;14.73;10.23;;;4.50;99.90;;;;;;4841272;29;20557;-59
2022/11/23 01:51:09;;;;;;;16.00;10.33;;;4.40;99.90;;;;;;4841363;29;20476;-58
2022/11/23 01:53:38;;;;;;;15.50;10.00;;;4.40;99.90;;;;;;4842250;29;20511;-58
2022/11/23 01:56:09;;;;;;;17.13;10.83;;;4.50;99.90;;;;;;4824388;29;20487;-58
2022/11/23 01:58:41;;;;;;;14.83;10.90;;;4.40;99.90;;;;;;4838114;29;20488;-59
2022/11/23 02:01:09;;;;;;;14.13;10.00;;;4.50;99.90;;;;;;4841870;29;20512;-58
2022/11/23 02:03:37;;;;;;;17.73;9.77;;;4.40;99.90;;;;;;4842101;29;20516;-58
2022/11/23 02:06:14;;;;;;;16.77;10.93;;;4.40;99.90;;;;;;4841136;29;20476;-59
2022/11/23 02:08:43;;;;;;;17.43;10.80;;;4.40;99.90;;;;;;4842154;29;20475;-58
2022/11/23 02:11:13;;;;;;;14.83;10.43;;;4.40;99.90;;;;;;4856466;29;20494;-58
2022/11/23 02:13:42;;;;;;;16.97;10.30;;;4.50;99.90;;;;;;4842139;29;20463;-58
2022/11/23 02:16:11;;;;;;;16.53;10.30;;;4.50;99.90;;;;;;4842338;29;20987;-58
2022/11/23 02:18:43;;;;;;;16.57;10.10;;;4.50;99.90;;;;;;4842002;29;20829;-59
2022/11/23 02:21:11;;;;;;;15.57;10.50;;;4.50;99.90;;;;;;4840868;29;20560;-58
2022/11/23 02:23:52;;;;;;;15.00;9.20;;;4.50;99.90;;;;;;4840429;29;20502;-58
2022/11/23 02:26:24;;;;;;;15.53;10.63;;;4.60;99.90;;;;;;4842005;29;20462;-59
2022/11/23 02:28:58;;;;;;;18.97;10.60;;;4.60;99.90;;;;;;4842285;29;20488;-58
2022/11/23 02:31:26;;;;;;;16.70;10.10;;;4.60;99.90;;;;;;4841991;29;20492;-58
2022/11/23 02:33:54;;;;;;;16.63;10.50;;;4.70;99.90;;;;;;4854136;29;20507;-58
2022/11/23 02:36:37;;;;;;;14.50;10.20;;;4.60;99.90;;;;;;4840839;29;20984;-58
2022/11/23 02:39:09;;;;;;;12.60;9.73;;;4.60;99.90;;;;;;4842303;29;20475;-58
2022/11/23 02:41:42;;;;;;;14.30;9.10;;;4.60;99.90;;;;;;4840475;29;20559;-59
2022/11/23 02:44:23;;;;;;;16.20;9.83;;;4.60;99.90;;;;;;4840599;29;20499;-59
2022/11/23 02:46:53;;;;;;;15.63;9.77;;;4.70;99.90;;;;;;4841957;29;20963;-58
2022/11/23 02:49:21;;;;;;;13.90;9.37;;;4.60;99.90;;;;;;4843184;29;20578;-58
2022/11/23 02:51:51;;;;;;;16.67;9.90;;;4.70;99.90;;;;;;4845674;29;20493;-58
2022/11/23 02:54:19;;;;;;;15.07;9.50;;;4.80;99.90;;;;;;4844308;29;20479;-59
2022/11/23 02:56:48;;;;;;;15.53;8.80;;;4.70;99.90;;;;;;4844395;29;20479;-57
2022/11/23 02:59:18;;;;;;;14.43;9.97;;;4.70;99.90;;;;;;4844359;29;21026;-58
2022/11/23 03:01:46;;;;;;;13.60;9.87;;;4.70;99.90;;;;;;4859306;29;20481;-58
2022/11/23 03:04:14;;;;;;;15.80;9.93;;;4.70;99.90;;;;;;4845693;29;20511;-58
2022/11/23 03:06:43;;;;;;;13.47;9.07;;;4.70;99.90;;;;;;4845389;29;20945;-59
2022/11/23 03:09:11;;;;;;;16.37;9.17;;;4.70;99.90;;;;;;4844158;29;20487;-59
2022/11/23 03:11:39;;;;;;;14.73;10.13;;;4.80;99.90;;;;;;4844042;29;20479;-58
2022/11/23 03:14:08;;;;;;;18.20;9.43;;;4.80;99.90;;;;;;4859631;29;20484;-58
2022/11/23 03:16:44;;;;;;;14.30;9.37;;;4.80;99.90;;;;;;4845350;29;20520;-58
2022/11/23 03:19:16;;;;;;;15.60;9.20;;;4.80;99.90;;;;;;4845544;29;20536;-59
2022/11/23 03:21:45;;;;;;;14.13;9.50;;;4.80;99.90;;;;;;4859076;29;20551;-58
2022/11/23 03:24:13;;;;;;;15.17;9.53;;;4.80;99.90;;;;;;4845365;29;20500;-59
2022/11/23 03:26:41;;;;;;;15.57;10.23;;;4.80;99.90;;;;;;4843858;29;21004;-59
2022/11/23 03:29:11;;;;;;;13.73;10.20;;;4.80;99.90;;;;;;4845048;29;20479;-58
2022/11/23 03:31:40;;;;;;;14.83;10.23;;;4.80;99.90;;;;;;4858546;29;20483;-58
2022/11/23 03:34:12;;;;;;;12.37;9.30;;;4.80;99.90;;;;;;4840975;29;20588;-59
2022/11/23 03:36:40;;;;;;;14.40;9.47;;;4.80;99.90;;;;;;4826454;29;20470;-58
2022/11/23 03:39:09;;;;;;;13.03;9.43;;;4.80;99.90;;;;;;4840858;29;20509;-59
2022/11/23 03:41:57;;;;;;;13.67;9.13;;;4.80;99.90;;;;;;4819843;29;20551;-58
2022/11/23 03:44:32;;;;;;;12.93;8.83;;;4.80;99.90;;;;;;4858792;29;20488;-59
2022/11/23 03:47:00;;;;;;;12.17;8.13;;;4.80;99.90;;;;;;4843463;29;20834;-58
2022/11/23 03:49:29;;;;;;;11.87;8.80;;;4.80;99.90;;;;;;4858544;29;20479;-58
2022/11/23 03:51:58;;;;;;;13.43;8.53;;;4.80;99.90;;;;;;4857228;29;20898;-58
2022/11/23 03:54:27;;;;;;;13.93;8.50;;;4.90;99.90;;;;;;4843216;29;20478;-58
2022/11/23 03:56:55;;;;;;;14.50;8.00;;;4.90;99.90;;;;;;4843376;29;20483;-59
2022/11/23 03:59:23;;;;;;;14.50;9.10;;;4.90;99.90;;;;;;4843356;29;20570;-59
2022/11/23 04:01:53;;;;;;;14.70;8.80;;;4.90;99.90;;;;;;4842972;29;20567;-58
2022/11/23 04:04:26;;;;;;;14.57;8.63;;;4.90;99.90;;;;;;4844550;29;20496;-58
2022/11/23 04:07:00;;;;;;;13.07;8.20;;;4.90;99.90;;;;;;4843215;29;20844;-58
2022/11/23 04:09:33;;;;;;;15.27;8.10;;;5.00;99.90;;;;;;4849201;29;20478;-58
2022/11/23 04:12:06;;;;;;;11.47;8.23;;;5.00;99.90;;;;;;4841008;29;20519;-58
2022/11/23 04:14:37;;;;;;;13.00;8.13;;;5.00;99.90;;;;;;4837378;29;20837;-58
2022/11/23 04:17:06;;;;;;;13.30;8.13;;;5.00;99.90;;;;;;4832402;29;20480;-58
2022/11/23 04:19:34;;;;;;;14.17;8.27;;;5.00;99.90;;;;;;4833647;29;20499;-58
2022/11/23 04:22:02;;;;;;;13.83;8.40;;;5.00;99.90;;;;;;4857987;29;20547;-58
2022/11/23 04:24:36;;;;;;;14.10;8.60;;;5.00;99.90;;;;;;4842742;29;20495;-58
2022/11/23 04:27:06;;;;;;;12.40;8.80;;;5.00;99.90;;;;;;4842788;29;20491;-58
2022/11/23 04:29:34;;;;;;;13.60;8.57;;;5.00;99.90;;;;;;4842660;29;20841;-58
2022/11/23 04:32:02;;;;;;;13.73;8.27;;;5.00;99.90;;;;;;4842501;29;20484;-59
2022/11/23 04:34:32;;;;;;;13.80;7.47;;;5.10;99.90;;;;;;4842565;29;20991;-59
2022/11/23 04:37:03;;;;;;;13.10;8.60;;;5.00;99.90;;;;;;4847693;29;20523;-58
2022/11/23 04:39:39;;;;;;;14.73;8.20;;;5.00;99.90;;;;;;4842691;29;20486;-59
2022/11/23 04:42:29;;;;;;;11.93;7.97;;;5.10;99.90;;;;;;4843500;29;20486;-59
2022/11/23 04:45:01;;;;;;;13.13;8.73;;;5.10;99.90;;;;;;4842477;29;21032;-58
2022/11/23 04:47:30;;;;;;;12.60;9.33;;;5.10;99.90;;;;;;4842028;29;20480;-58
2022/11/23 04:50:05;;;;;;;12.90;8.93;;;5.10;99.90;;;;;;4842380;29;20574;-59
2022/11/23 04:52:34;;;;;;;13.10;8.50;;;5.10;99.90;;;;;;4843438;29;20518;-59
2022/11/23 04:55:06;;;;;;;12.00;8.53;;;5.10;99.90;;;;;;4842390;29;20487;-58
2022/11/23 04:57:39;;;;;;;10.97;8.13;;;5.10;99.90;;;;;;4842434;29;20983;-59
2022/11/23 05:00:09;;;;;;;11.93;8.57;;;5.10;99.90;;;;;;4842671;29;20594;-58
2022/11/23 05:02:37;;;;;;;11.27;8.17;;;5.10;99.90;;;;;;4841856;29;20493;-58
2022/11/23 05:05:29;;;;;;;11.23;7.87;;;5.10;99.90;;;;;;4840334;29;20503;-58
2022/11/23 05:07:58;;;;;;;11.43;7.80;;;5.10;99.90;;;;;;4842147;29;20513;-59
2022/11/23 05:10:38;;;;;;;15.50;9.60;;;5.20;99.90;;;;;;4842227;29;20488;-59
2022/11/23 05:13:06;;;;;;;13.07;8.13;;;5.10;99.90;;;;;;4842990;29;20960;-59
2022/11/23 05:15:34;;;;;;;10.87;7.77;;;5.10;99.90;;;;;;4842892;29;20478;-58
2022/11/23 05:18:05;;;;;;;11.87;7.80;;;5.20;99.90;;;;;;4841889;29;20527;-58
2022/11/23 05:20:36;;;;;;;13.27;7.40;;;5.10;99.90;;;;;;4841714;29;20545;-59
2022/11/23 05:23:04;;;;;;;11.00;7.87;;;5.20;99.90;;;;;;4842983;29;20550;-59
2022/11/23 05:25:34;;;;;;;12.17;8.20;;;5.20;99.90;;;;;;4841759;29;20507;-58
2022/11/23 05:28:05;;;;;;;14.07;8.27;;;5.20;99.90;;;;;;4841501;29;20699;-59
2022/11/23 05:30:53;;;;;;;11.40;8.13;;;5.20;99.90;;;;;;4842862;29;20495;-59
2022/11/23 05:33:21;;;;;;;11.00;7.30;;;5.20;99.90;;;;;;4842831;29;20486;-58
2022/11/23 05:35:51;;;;;;;13.57;8.33;;;5.30;99.90;;;;;;4841440;29;20473;-58
2022/11/23 05:38:27;;;;;;;13.40;7.77;;;5.20;99.90;;;;;;4841299;29;20283;-58
2022/11/23 05:40:59;;;;;;;12.40;8.47;;;5.30;99.90;;;;;;4840481;29;20489;-58
2022/11/23 05:43:27;;;;;;;14.57;8.03;;;5.30;99.90;;;;;;4824719;29;20568;-58
2022/11/23 05:45:59;;;;;;;11.87;8.10;;;5.30;99.90;;;;;;4840819;29;20527;-58
2022/11/23 05:48:28;;;;;;;12.20;7.67;;;5.30;99.90;;;;;;4841290;29;20235;-59
2022/11/23 05:50:59;;;;;;;11.67;8.10;;;5.30;99.90;;;;;;4856585;29;20480;-59
2022/11/23 05:53:35;;;;;;;12.07;7.67;;;5.30;99.90;;;;;;4841116;29;21011;-59
2022/11/23 05:56:09;;;;;;;11.33;7.67;;;5.30;99.90;;;;;;4841275;29;20491;-59
2022/11/23 05:58:48;;;;;;;10.70;7.80;;;5.30;99.90;;;;;;4841138;29;20487;-58
2022/11/23 06:01:16;;;;;;;9.17;7.80;;;5.30;99.90;;;;;;4842298;29;20499;-59
2022/11/23 06:03:45;;;;;;;13.93;8.67;;;5.30;99.90;;;;;;4840987;29;20476;-59
2022/11/23 06:06:15;;;;;;;13.23;7.97;;;5.30;99.90;;;;;;4841060;29;20571;-58
2022/11/23 06:08:44;;;;;;;13.27;8.30;;;5.40;99.90;;;;;;4840948;29;20558;-59
2022/11/23 06:11:18;;;;;;;11.40;7.50;;;5.50;99.90;;;;;;4841097;29;20702;-59
2022/11/23 06:13:47;;;;;;;10.30;7.07;;;5.50;99.90;;;;;;4840416;29;20477;-58
2022/11/23 06:16:17;;;;;;;12.63;6.97;;;5.50;99.90;;;;;;4840828;29;20479;-59
2022/11/23 06:18:58;;;;;;;9.97;7.07;;;5.50;99.90;;;;;;4840972;29;21008;-58
2022/11/23 06:21:27;;;;;;;10.07;6.77;;;5.40;99.90;;;;;;4840734;29;20984;-58
2022/11/23 06:23:55;;;;;;;11.90;7.10;;;5.50;99.90;;;;;;4840393;29;20987;-59
2022/11/23 06:26:25;;;;;;;12.53;7.00;;;5.60;99.90;;;;;;4840866;29;20734;-59
2022/11/23 06:28:53;;;;;;;10.70;6.50;;;5.50;99.90;;;;;;4840889;29;20991;-59
2022/11/23 06:31:22;;;;;;;14.43;6.83;;;5.50;99.90;;;;;;4839162;29;20495;-59
2022/11/23 06:33:52;;;;;;;10.23;7.00;;;5.60;99.90;;;;;;4834560;29;20469;-57
2022/11/23 06:36:21;;;;;;;12.40;7.40;;;5.60;99.90;;;;;;4835733;29;20570;-58
2022/11/23 06:38:52;;;;;;;10.00;6.97;;;5.60;99.90;;;;;;4853124;29;20473;-58
2022/11/23 06:41:24;;;;;;;11.47;6.60;;;5.60;99.90;;;;;;4844637;29;20566;-59
2022/11/23 06:43:59;;;;;;;11.67;6.77;;;5.60;99.90;;;;;;4833824;29;20535;-58
2022/11/23 06:46:39;;;;;;;10.23;6.70;;;5.60;99.90;;;;;;4838964;29;21055;-58
2022/11/23 06:49:07;;;;;;;13.10;7.47;;;5.60;99.90;;;;;;4831336;29;21028;-58
2022/11/23 06:51:37;;;;;;;10.87;7.30;;;5.70;99.90;;;;;;4832824;29;21001;-57
2022/11/23 06:54:06;;;;;;;11.23;7.03;;;5.60;99.90;;;;;;4839564;29;20579;-57
2022/11/23 06:56:34;;;;;;;11.90;8.00;;;5.60;99.90;;;;;;4830786;29;20525;-58
2022/11/23 06:59:03;;;;;;;15.53;8.33;;;5.70;99.90;;;;;;4835329;29;20238;-54
2022/11/23 07:01:31;;;;;;;14.90;9.43;;;5.60;99.90;;;;;;4850594;29;20494;-58
2022/11/23 07:04:05;;;;;;;16.10;8.70;;;5.60;99.90;;;;;;4831809;29;20479;-56
2022/11/23 07:06:40;;;;;;;10.63;7.90;;;5.70;99.90;;;;;;4836986;29;20551;-58
2022/11/23 07:09:19;;;;;;;13.03;7.77;;;5.70;99.90;;;;;;4834073;29;20512;-58
2022/11/23 07:12:13;;;;;;;10.20;7.13;;;5.70;99.90;;;;;;4850193;29;20490;-58
2022/11/23 07:14:42;;;;;;;13.53;8.00;;;5.70;99.90;;;;;;4828978;29;20483;-58
2022/11/23 07:17:10;;;;;;;18.83;9.87;;;5.70;99.90;;;;;;4834673;29;20491;-52
2022/11/23 07:19:44;;;;;;;14.17;9.63;;;5.70;99.90;;;;;;4831429;29;20993;-55
2022/11/23 07:22:12;;;;;;;13.23;9.03;;;5.80;99.90;;;;;;4831588;29;20496;-57
2022/11/23 07:24:42;;;;;;;12.57;7.40;;;5.80;99.90;;;;;;4830695;29;20494;-58
2022/11/23 07:27:14;;;;;;;14.80;8.70;;;5.80;99.90;;;;;;4830323;29;21202;-55
2022/11/23 07:29:42;;;;;;;13.33;7.90;;;5.80;99.90;;;;;;4852172;29;20525;-56
2022/11/23 07:32:13;;;;;;;14.63;7.83;;;5.80;99.90;;;;;;4830327;29;20287;-58
2022/11/23 07:34:41;;;;;;;15.17;7.80;;;5.80;99.90;;;;;;4828714;29;20494;-57
2022/11/23 07:37:10;;;;;;;12.50;6.63;;;5.90;99.90;;;;;;4833833;29;21167;-57
2022/11/23 07:39:38;;;;;;;12.53;6.87;;;5.80;99.90;;;;;;4846991;29;20487;-58
2022/11/23 07:42:27;;;;;;;9.57;5.97;;;5.80;99.90;;;;;;4835245;29;20507;-54
2022/11/23 07:45:05;;;;;;;10.70;6.40;;;5.80;99.90;;;;;;4834842;29;20528;-58
2022/11/23 07:47:34;;;;;;;13.03;6.07;;;5.70;99.90;;;;;;4857415;29;20503;-59
2022/11/23 07:50:02;;;;;;;11.77;5.77;;;5.80;99.90;;;;;;4845287;29;20986;-58
2022/11/23 07:52:30;;;;;;;12.13;6.07;;;5.80;99.90;;;;;;4840943;29;20665;-55
2022/11/23 07:54:59;;;;;;;9.80;5.73;;;5.80;99.90;;;;;;4826301;29;20487;-58
2022/11/23 07:57:29;;;;;;;9.70;6.00;;;5.90;99.90;;;;;;4828876;29;20480;-55
2022/11/23 07:59:57;;;;;;;11.57;5.93;;;5.90;99.90;;;;;;4830652;29;20540;-56
2022/11/23 08:02:25;;;;;;;11.50;5.87;;;5.90;99.90;;;;;;4834275;29;20495;-57
2022/11/23 08:04:54;;;;;;;10.47;6.13;;;5.90;99.90;;;;;;4843889;29;20535;-59
2022/11/23 08:07:22;;;;;;;10.97;5.87;;;5.90;99.90;;;;;;4844554;29;20496;-58
2022/11/23 08:09:50;;;;;;;12.00;6.00;;;5.90;99.90;;;;;;4846380;29;20486;-58
2022/11/23 08:12:18;;;;;;;8.57;5.30;;;5.90;99.90;;;;;;4845730;29;20703;-57
2022/11/23 08:14:47;;;;;;;9.17;5.37;;;6.00;99.90;;;;;;4834630;29;20507;-53
2022/11/23 08:17:15;;;;;;;10.27;6.00;;;6.00;99.90;;;;;;4834934;29;20477;-57
2022/11/23 08:19:43;;;;;;;8.57;4.93;;;6.00;99.90;;;;;;4835364;29;20484;-58
2022/11/23 08:22:11;;;;;;;13.33;6.30;;;6.00;99.90;;;;;;4832976;29;20504;-55
2022/11/23 08:24:42;;;;;;;10.30;5.63;;;6.00;99.90;;;;;;4836135;29;20487;-58
2022/11/23 08:27:11;;;;;;;10.00;5.20;;;6.00;99.90;;;;;;4835811;29;20507;-55
2022/11/23 08:29:39;;;;;;;12.43;5.37;;;6.10;99.90;;;;;;4837381;29;20874;-57
2022/11/23 08:32:08;;;;;;;9.27;5.27;;;6.10;99.90;;;;;;4829417;29;20265;-57
2022/11/23 08:34:36;;;;;;;7.90;5.03;;;6.10;99.90;;;;;;4832698;29;20529;-57
2022/11/23 08:37:04;;;;;;;7.30;4.93;;;6.10;99.90;;;;;;4831734;29;20493;-54
2022/11/23 08:39:32;;;;;;;8.93;5.00;;;6.10;99.90;;;;;;4838431;29;20234;-58
2022/11/23 08:42:00;;;;;;;14.40;5.43;;;6.10;99.90;;;;;;4845888;29;20487;-58
2022/11/23 08:44:29;;;;;;;7.90;4.73;;;6.20;99.90;;;;;;4845797;29;20484;-58
2022/11/23 08:46:57;;;;;;;8.77;5.33;;;6.20;99.90;;;;;;4845431;29;21007;-56
2022/11/23 08:49:27;;;;;;;8.80;5.50;;;6.30;99.90;;;;;;4846766;29;20655;-58
2022/11/23 08:51:55;;;;;;;9.07;4.67;;;6.30;99.90;;;;;;4846652;29;20940;-55
2022/11/23 08:54:23;;;;;;;9.07;5.20;;;6.30;99.90;;;;;;4843510;29;20475;-57
2022/11/23 08:56:51;;;;;;;9.13;5.37;;;6.40;99.90;;;;;;4846296;29;20472;-57
2022/11/23 08:59:19;;;;;;;8.80;4.97;;;6.40;99.90;;;;;;4844260;29;20477;-58
2022/11/23 09:01:47;;;;;;;9.90;5.20;;;6.40;99.90;;;;;;4846994;29;20255;-58
2022/11/23 09:04:16;;;;;;;9.90;5.53;;;6.50;99.90;;;;;;4841347;29;20484;-57
2022/11/23 09:06:49;;;;;;;9.27;4.97;;;6.50;99.90;;;;;;4841423;29;20600;-57
2022/11/23 09:09:17;;;;;;;8.90;5.50;;;6.50;99.90;;;;;;4845138;29;20630;-58
2022/11/23 09:11:45;;;;;;;10.27;5.20;;;6.60;99.90;;;;;;4842518;29;20519;-56
2022/11/23 09:14:13;;;;;;;7.77;5.23;;;6.60;99.90;;;;;;4841543;29;20482;-57
2022/11/23 09:16:41;;;;;;;10.30;5.87;;;6.60;99.90;;;;;;4844524;29;20795;-59
2022/11/23 09:19:13;;;;;;;9.90;5.20;;;6.70;99.90;;;;;;4844524;29;20283;-58
2022/11/23 09:21:41;;;;;;;12.83;6.30;;;6.70;99.90;;;;;;4843993;29;20245;-58
2022/11/23 09:24:12;;;;;;;11.93;5.23;;;6.80;99.90;;;;;;4841446;29;20487;-58
2022/11/23 09:26:40;;;;;;;9.40;5.50;;;6.80;99.90;;;;;;4846714;29;20247;-58
2022/11/23 09:29:09;;;;;;;6.97;4.70;;;6.90;99.90;;;;;;4844364;29;20596;-58
2022/11/23 09:31:37;;;;;;;9.67;4.97;;;6.90;99.90;;;;;;4843064;29;20239;-57
2022/11/23 09:34:05;;;;;;;7.73;5.03;;;6.90;99.90;;;;;;4841448;29;20231;-56
2022/11/23 09:36:34;;;;;;;6.93;5.17;;;6.90;99.90;;;;;;4844167;29;20567;-58
2022/11/23 09:39:02;;;;;;;10.70;5.27;;;7.00;99.90;;;;;;4842293;29;20238;-58
2022/11/23 09:41:48;;;;;;;7.43;4.47;;;7.00;99.90;;;;;;4846644;29;20249;-55
2022/11/23 09:44:24;;;;;;;9.43;5.00;;;7.00;99.90;;;;;;4840911;29;20502;-58
2022/11/23 09:47:07;;;;;;;9.50;4.80;;;7.00;99.90;;;;;;4841924;29;20245;-56
2022/11/23 09:49:43;;;;;;;8.40;4.60;;;7.10;99.90;;;;;;4843111;29;20251;-58
2022/11/23 09:52:15;;;;;;;6.70;4.33;;;7.20;99.90;;;;;;4843690;29;20242;-56
2022/11/23 09:54:45;;;;;;;12.37;5.30;;;7.20;99.90;;;;;;4843726;29;20242;-55
2022/11/23 09:57:21;;;;;;;6.80;4.67;;;7.30;99.90;;;;;;4842160;29;20226;-57
2022/11/23 09:59:53;;;;;;;8.60;5.03;;;7.40;99.90;;;;;;4837407;29;20631;-56
2022/11/23 10:02:23;;;;;;;7.50;4.33;;;7.40;99.90;;;;;;4833890;29;20730;-58
2022/11/23 10:04:53;;;;;;;6.87;4.20;;;7.50;99.90;;;;;;4833147;29;20247;-58
2022/11/23 10:07:38;;;;;;;5.37;4.20;;;7.60;99.90;;;;;;4835509;29;20835;-58
2022/11/23 10:10:19;;;;;;;7.70;4.47;;;7.60;99.90;;;;;;4832953;29;20235;-55
2022/11/23 10:12:59;;;;;;;6.23;4.30;;;7.60;99.90;;;;;;4833121;29;20243;-55
2022/11/23 10:15:33;;;;;;;5.67;3.80;;;7.60;99.90;;;;;;4830970;29;20284;-55
2022/11/23 10:18:18;;;;;;;8.30;3.90;;;7.60;99.90;;;;;;4834343;29;20676;-58
2022/11/23 10:20:59;;;;;;;7.53;4.20;;;7.70;99.90;;;;;;4833632;29;20232;-57
2022/11/23 10:23:46;;;;;;;8.07;3.80;;;7.70;99.90;;;;;;4840149;29;20245;-56
2022/11/23 10:26:17;;;;;;;9.33;4.23;;;7.70;99.90;;;;;;4831955;29;20239;-55
2022/11/23 10:28:47;;;;;;;7.77;3.90;;;7.70;99.90;;;;;;4833019;29;20246;-58
2022/11/23 10:31:17;;;;;;;9.03;4.23;;;7.70;99.90;;;;;;4830679;29;20273;-57
2022/11/23 10:33:54;;;;;;;6.57;4.07;;;7.80;99.90;;;;;;4832609;29;20281;-54
2022/11/23 10:36:22;;;;;;;6.20;3.50;;;7.80;99.90;;;;;;4835131;29;20236;-56
2022/11/23 10:38:52;;;;;;;6.17;3.80;;;7.80;99.90;;;;;;4832971;29;20378;-58
2022/11/23 10:41:20;;;;;;;6.57;4.17;;;7.80;99.90;;;;;;4833419;29;20723;-55
2022/11/23 10:43:55;;;;;;;6.03;3.73;;;7.80;99.90;;;;;;4830930;29;20266;-55
2022/11/23 10:46:28;;;;;;;7.17;4.13;;;7.90;99.90;;;;;;4831155;29;20231;-57
2022/11/23 10:49:07;;;;;;;6.93;3.90;;;8.00;99.90;;;;;;4835835;29;20742;-57
2022/11/23 10:51:36;;;;;;;8.37;3.50;;;8.00;99.90;;;;;;4832214;29;20246;-59
2022/11/23 10:54:06;;;;;;;7.43;3.67;;;8.00;99.90;;;;;;4828700;29;20231;-58
2022/11/23 10:56:34;;;;;;;7.17;3.73;;;8.10;99.90;;;;;;4841203;29;20231;-58
2022/11/23 10:59:04;;;;;;;6.13;3.40;;;8.20;99.90;;;;;;4844609;29;20698;-58
2022/11/23 11:01:32;;;;;;;7.33;4.00;;;8.20;99.90;;;;;;4841507;29;20242;-58
2022/11/23 11:04:03;;;;;;;7.17;3.37;;;8.20;99.90;;;;;;4839371;29;20254;-56
2022/11/23 11:06:34;;;;;;;6.33;3.60;;;8.20;99.90;;;;;;4841375;29;20235;-58
2022/11/23 11:09:04;;;;;;;6.47;3.23;;;8.20;99.90;;;;;;4843227;29;20247;-58
2022/11/23 11:11:46;;;;;;;7.10;3.70;;;8.30;99.90;;;;;;4837123;29;20298;-58
2022/11/23 11:14:17;;;;;;;6.27;3.30;;;8.30;99.90;;;;;;4833166;29;20237;-56
2022/11/23 11:16:48;;;;;;;7.20;3.40;;;8.30;99.90;;;;;;4836843;29;20235;-58
2022/11/23 11:19:27;;;;;;;4.70;2.97;;;8.40;99.90;;;;;;4842213;29;20228;-58
2022/11/23 11:21:56;;;;;;;5.23;3.07;;;8.30;99.90;;;;;;4837574;29;20243;-55
2022/11/23 11:24:30;;;;;;;6.97;3.13;;;8.40;99.90;;;;;;4831527;29;20243;-56
2022/11/23 11:27:02;;;;;;;9.23;3.43;;;8.40;99.90;;;;;;4837483;29;20594;-56
2022/11/23 11:29:37;;;;;;;6.37;3.33;;;8.40;99.90;;;;;;4837157;29;21091;-58
2022/11/23 11:32:10;;;;;;;4.87;3.00;;;8.40;99.90;;;;;;4835935;29;20243;-56
2022/11/23 11:34:45;;;;;;;7.00;3.20;;;8.30;99.90;;;;;;4833512;29;20271;-58
2022/11/23 11:37:20;;;;;;;8.23;3.43;;;8.30;99.90;;;;;;4839181;29;20586;-58
2022/11/23 11:39:52;;;;;;;5.47;2.80;;;8.30;99.90;;;;;;4836391;29;20226;-57
2022/11/23 11:42:30;;;;;;;7.40;2.80;;;8.40;99.90;;;;;;4834461;29;20260;-58
2022/11/23 11:45:03;;;;;;;5.70;2.90;;;8.40;99.90;;;;;;4831256;29;20239;-57
2022/11/23 11:47:36;;;;;;;6.10;3.47;;;8.40;99.90;;;;;;4844477;29;20227;-58
2022/11/23 11:50:19;;;;;;;8.07;3.37;;;8.40;99.90;;;;;;4846074;29;20246;-58
2022/11/23 11:52:50;;;;;;;7.97;3.30;;;8.50;99.90;;;;;;4842085;29;20620;-56
2022/11/23 11:55:22;;;;;;;6.93;3.47;;;8.60;99.90;;;;;;4831633;29;20243;-56
2022/11/23 11:58:03;;;;;;;7.47;3.17;;;8.70;99.90;;;;;;4834414;29;20289;-53
2022/11/23 12:00:34;;;;;;;7.57;3.17;;;8.70;99.90;;;;;;4833275;29;20657;-57
2022/11/23 12:03:14;;;;;;;8.63;3.63;;;8.90;99.90;;;;;;4831711;29;20239;-58
2022/11/23 12:05:48;;;;;;;6.37;3.00;;;9.00;99.90;;;;;;4828082;29;20317;-59
2022/11/23 12:08:22;;;;;;;6.77;3.27;;;9.10;99.90;;;;;;4830397;29;20243;-56
2022/11/23 12:10:52;;;;;;;7.07;3.60;;;9.10;99.90;;;;;;4829933;29;20706;-58
2022/11/23 12:13:23;;;;;;;6.40;3.10;;;9.00;99.90;;;;;;4829054;29;20236;-57
2022/11/23 12:16:01;;;;;;;7.67;3.57;;;9.10;99.90;;;;;;4826369;29;20227;-57
2022/11/23 12:18:45;;;;;;;5.13;3.10;;;9.00;99.90;;;;;;4828514;29;20223;-58
2022/11/23 12:21:28;;;;;;;5.57;3.10;;;9.00;99.90;;;;;;4829960;29;20248;-56
2022/11/23 12:24:04;;;;;;;7.67;3.30;;;9.10;99.90;;;;;;4826038;29;20886;-53
2022/11/23 12:26:42;;;;;;;7.53;3.40;;;9.10;99.90;;;;;;4829791;29;20243;-58
2022/11/23 12:29:30;;;;;;;6.60;3.47;;;9.20;99.90;;;;;;4827499;29;20239;-57
2022/11/23 12:32:09;;;;;;;7.57;3.57;;;9.20;99.90;;;;;;4828853;29;20315;-58
2022/11/23 12:34:54;;;;;;;7.90;3.90;;;9.30;99.90;;;;;;4827523;29;20283;-57
2022/11/23 12:37:38;;;;;;;7.67;3.30;;;9.30;99.90;;;;;;4830758;29;20239;-58
2022/11/23 12:40:29;;;;;;;7.60;3.80;;;9.30;99.90;;;;;;4828857;29;20330;-57
2022/11/23 12:43:01;;;;;;;4.77;2.70;;;9.20;99.90;;;;;;4827828;29;20255;-55
2022/11/23 12:45:45;;;;;;;4.87;2.90;;;9.20;99.90;;;;;;4824043;29;20228;-56
2022/11/23 12:48:30;;;;;;;5.60;3.03;;;9.20;99.90;;;;;;4829729;29;20244;-57
2022/11/23 12:51:06;;;;;;;6.73;3.20;;;9.20;99.90;;;;;;4825663;29;20236;-58
2022/11/23 12:53:44;;;;;;;7.93;4.43;;;9.20;99.90;;;;;;4837164;29;20312;-55
2022/11/23 12:56:24;;;;;;;6.93;3.40;;;9.10;99.90;;;;;;4839020;29;20239;-57
2022/11/23 12:58:53;;;;;;;6.97;3.30;;;9.10;99.90;;;;;;4830089;29;20231;-58
2022/11/23 13:01:25;;;;;;;5.07;3.70;;;9.10;99.90;;;;;;4826936;29;20649;-58
2022/11/23 13:04:36;;;;;;;6.23;3.07;;;9.10;99.90;;;;;;4826275;29;20246;-54
2022/11/23 13:07:49;;;;;;;5.50;3.00;;;9.10;99.90;;;;;;4836357;29;20231;-58
2022/11/23 13:10:30;;;;;;;7.07;3.23;;;9.20;99.90;;;;;;4836420;29;20250;-55
2022/11/23 13:13:22;;;;;;;5.27;2.60;;;9.20;99.90;;;;;;4827967;29;20244;-57